Nisshoumaru — JD3093 — position and weather

sailwx.info

Track history (hours):
 
Tides and Currents Weather Stations Pressure Air Temp Water Temp Dewpoint Dewpoint Depression Visibility Wind Speed Wind Dir Waves Ship Positions

Nisshoumaru

Last reported at 2017-May-25 07:00 UTC. Time now 2017-May-25 07:02 UTC.
Position N 34°36' E 135°03'.

Length 76 m; draft 4 m.

Type: Cargo ship. MMSI: 431001549.

Date/timePositionNaut miles runAvg speedWind from/ knotsBaromVisibWave heightAir tempDewpointWater temp
2017-May-25 07:00N 34°36' E 135°03'611.3
2017-May-25 06:30N 34°35' E 135°10'612.3
2017-May-25 06:00N 34°33' E 135°17'510.7
2017-May-25 05:30N 34°31' E 135°23'1 1.1
2017-May-25 04:45N 34°31' E 135°24'0 0.0
2017-May-24 22:57N 34°31' E 135°24'0 0.0
2017-May-24 22:27N 34°31' E 135°24'0 0.0
2017-May-24 20:57N 34°31' E 135°24'0 0.0
2017-May-24 19:57N 34°31' E 135°24'0 0.0
2017-May-24 19:09N 34°31' E 135°24'0 0.0
2017-May-24 18:57N 34°31' E 135°24'0 0.0
2017-May-24 18:27N 34°31' E 135°24'0 0.0
2017-May-24 17:45N 34°31' E 135°24'0 0.0
2017-May-24 16:45N 34°31' E 135°24'0 0.0
2017-May-23 23:15N 34°31' E 135°24'0 0.1
2017-May-23 23:00N 34°31' E 135°24'3 4.9
2017-May-23 22:29N 34°33' E 135°22'1 0.5
2017-May-23 21:18N 34°33' E 135°21'0 0.0
2017-May-23 21:00N 34°33' E 135°21'0 0.0
2017-May-23 19:42N 34°33' E 135°21'0 0.0
2017-May-23 19:30N 34°33' E 135°21'0 0.0
2017-May-23 19:00N 34°33' E 135°21'0 0.0
2017-May-23 18:30N 34°33' E 135°21'0 0.1
2017-May-23 18:00N 34°33' E 135°21'0 0.1
2017-May-23 17:25N 34°33' E 135°21'0 0.0
2017-May-23 16:07N 34°33' E 135°21'0 0.0
2017-May-23 15:55N 34°33' E 135°21'0 0.1
2017-May-23 15:25N 34°33' E 135°21'0 0.0
2017-May-23 14:31N 34°33' E 135°21'0 0.1
2017-May-23 13:49N 34°33' E 135°21'0 0.0
2017-May-23 12:25N 34°33' E 135°21'0 0.0
2017-May-23 11:07N 34°33' E 135°21'0 0.1
2017-May-23 10:49N 34°33' E 135°21'0 0.0
2017-May-23 10:25N 34°33' E 135°21'0 0.0
2017-May-23 09:49N 34°33' E 135°21'0 0.0
2017-May-23 09:25N 34°33' E 135°21'0 0.0
2017-May-23 08:43N 34°33' E 135°21'0 0.0
2017-May-23 08:25N 34°33' E 135°21'0 0.0
2017-May-23 07:43N 34°33' E 135°21'0 0.0
2017-May-23 07:25N 34°33' E 135°21'0 0.0
2017-May-23 06:49N 34°33' E 135°21'0 0.0
2017-May-23 06:19N 34°33' E 135°21'0 0.0
2017-May-23 01:49N 34°33' E 135°21'0 0.0
2017-May-23 01:19N 34°33' E 135°21'0 0.1
2017-May-23 00:55N 34°33' E 135°21'0 0.0
2017-May-22 21:36N 34°33' E 135°21'0 0.7
2017-May-22 21:30N 34°33' E 135°21'4 8.4
2017-May-22 21:00N 34°30' E 135°17'612.9
2017-May-22 20:30N 34°27' E 135°10'712.9
2017-May-22 19:56N 34°22' E 135°04'613.2
2017-May-22 19:27N 34°16' E 134°59'612.9
2017-May-22 19:00N 34°11' E 135°00'  
Track history (hours):
 
Tides and Currents Weather Stations Pressure Air Temp Water Temp Dewpoint Dewpoint Depression Visibility Wind Speed Wind Dir Waves Ship Positions

Nisshoumaru

Last reported at 2017-May-25 07:00 UTC. Time now 2017-May-25 07:02 UTC.
Position N 34°36' E 135°03'.

Length 76 m; draft 4 m.

Type: Cargo ship. MMSI: 431001549.

Date/timePositionNaut miles runAvg speedWind from/ knotsBaromVisibWave heightAir tempDewpointWater temp
2017-May-25 07:00N 34°36' E 135°03'611.3
2017-May-25 06:30N 34°35' E 135°10'612.3
2017-May-25 06:00N 34°33' E 135°17'510.7
2017-May-25 05:30N 34°31' E 135°23'1 1.1
2017-May-25 04:45N 34°31' E 135°24'0 0.0
2017-May-24 22:57N 34°31' E 135°24'0 0.0
2017-May-24 22:27N 34°31' E 135°24'0 0.0
2017-May-24 20:57N 34°31' E 135°24'0 0.0
2017-May-24 19:57N 34°31' E 135°24'0 0.0
2017-May-24 19:09N 34°31' E 135°24'0 0.0
2017-May-24 18:57N 34°31' E 135°24'0 0.0
2017-May-24 18:27N 34°31' E 135°24'0 0.0
2017-May-24 17:45N 34°31' E 135°24'0 0.0
2017-May-24 16:45N 34°31' E 135°24'0 0.0
2017-May-23 23:15N 34°31' E 135°24'0 0.1
2017-May-23 23:00N 34°31' E 135°24'3 4.9
2017-May-23 22:29N 34°33' E 135°22'1 0.5
2017-May-23 21:18N 34°33' E 135°21'0 0.0
2017-May-23 21:00N 34°33' E 135°21'0 0.0
2017-May-23 19:42N 34°33' E 135°21'0 0.0
2017-May-23 19:30N 34°33' E 135°21'0 0.0
2017-May-23 19:00N 34°33' E 135°21'0 0.0
2017-May-23 18:30N 34°33' E 135°21'0 0.1
2017-May-23 18:00N 34°33' E 135°21'0 0.1
2017-May-23 17:25N 34°33' E 135°21'0 0.0
2017-May-23 16:07N 34°33' E 135°21'0 0.0
2017-May-23 15:55N 34°33' E 135°21'0 0.1
2017-May-23 15:25N 34°33' E 135°21'0 0.0
2017-May-23 14:31N 34°33' E 135°21'0 0.1
2017-May-23 13:49N 34°33' E 135°21'0 0.0
2017-May-23 12:25N 34°33' E 135°21'0 0.0
2017-May-23 11:07N 34°33' E 135°21'0 0.1
2017-May-23 10:49N 34°33' E 135°21'0 0.0
2017-May-23 10:25N 34°33' E 135°21'0 0.0
2017-May-23 09:49N 34°33' E 135°21'0 0.0
2017-May-23 09:25N 34°33' E 135°21'0 0.0
2017-May-23 08:43N 34°33' E 135°21'0 0.0
2017-May-23 08:25N 34°33' E 135°21'0 0.0
2017-May-23 07:43N 34°33' E 135°21'0 0.0
2017-May-23 07:25N 34°33' E 135°21'0 0.0
2017-May-23 06:49N 34°33' E 135°21'0 0.0
2017-May-23 06:19N 34°33' E 135°21'0 0.0
2017-May-23 01:49N 34°33' E 135°21'0 0.0
2017-May-23 01:19N 34°33' E 135°21'0 0.1
2017-May-23 00:55N 34°33' E 135°21'0 0.0
2017-May-22 21:36N 34°33' E 135°21'0 0.7
2017-May-22 21:30N 34°33' E 135°21'4 8.4
2017-May-22 21:00N 34°30' E 135°17'612.9
2017-May-22 20:30N 34°27' E 135°10'712.9
2017-May-22 19:56N 34°22' E 135°04'613.2
2017-May-22 19:27N 34°16' E 134°59'612.9
2017-May-22 19:00N 34°11' E 135°00'  

Dump ship's entire track history